createdAt,value
2023-10-26T00:00:36.461Z,0.50
2023-10-26T00:01:33.956Z,0.50
2023-10-26T00:02:33.995Z,0.60
2023-10-26T00:03:34.151Z,0.50
2023-10-26T00:04:34.061Z,0.50
2023-10-26T00:05:34.319Z,0.60
2023-10-26T00:06:34.008Z,0.50
2023-10-26T00:07:33.904Z,0.70
2023-10-26T00:08:33.877Z,0.50
2023-10-26T00:09:33.875Z,0.50
2023-10-26T00:10:33.877Z,0.50
2023-10-26T00:11:33.863Z,0.50
2023-10-26T00:12:33.862Z,0.50
2023-10-26T00:13:33.805Z,0.50
2023-10-26T00:14:33.828Z,0.80
2023-10-26T00:15:33.804Z,0.60
2023-10-26T00:16:33.826Z,0.60
2023-10-26T00:17:33.805Z,0.70
2023-10-26T00:18:33.920Z,0.60
2023-10-26T00:19:33.869Z,0.60
2023-10-26T00:20:33.805Z,0.50
2023-10-26T00:21:33.999Z,0.60
2023-10-26T00:22:33.739Z,0.50
2023-10-26T00:23:33.764Z,0.50
2023-10-26T00:24:33.763Z,0.60
2023-10-26T00:25:33.736Z,0.60
2023-10-26T00:26:33.735Z,0.60
2023-10-26T00:27:33.696Z,0.60
2023-10-26T00:28:33.705Z,0.50
2023-10-26T00:29:33.681Z,0.70
2023-10-26T00:30:33.658Z,0.80
2023-10-26T00:31:33.637Z,0.40
2023-10-26T00:32:33.683Z,0.60
2023-10-26T00:33:33.714Z,0.70
2023-10-26T00:34:33.605Z,0.50
2023-10-26T00:35:33.584Z,0.40
2023-10-26T00:36:33.650Z,0.80
2023-10-26T00:37:33.578Z,0.60
2023-10-26T00:38:33.569Z,0.50
2023-10-26T00:39:33.579Z,0.60
2023-10-26T00:40:33.513Z,0.40
2023-10-26T00:41:33.517Z,0.50
2023-10-26T00:42:33.502Z,0.60
2023-10-26T00:43:33.560Z,0.50
2023-10-26T00:44:33.499Z,0.50
2023-10-26T00:45:33.471Z,0.70
2023-10-26T00:46:33.475Z,0.60
2023-10-26T00:47:33.492Z,0.60
2023-10-26T00:48:33.591Z,0.60
2023-10-26T00:49:33.514Z,0.40
2023-10-26T00:50:33.426Z,0.60
2023-10-26T00:51:33.413Z,0.50
2023-10-26T00:52:33.505Z,0.80
2023-10-26T00:53:33.403Z,0.60
2023-10-26T00:54:33.390Z,0.50
2023-10-26T00:55:33.392Z,0.80
2023-10-26T00:56:33.346Z,0.60
2023-10-26T00:57:33.349Z,0.60
2023-10-26T00:58:33.338Z,0.70
2023-10-26T00:59:33.345Z,0.60
2023-10-26T01:00:33.334Z,0.80
2023-10-26T01:01:33.508Z,0.60
2023-10-26T01:02:33.289Z,0.60
2023-10-26T01:03:33.328Z,0.70
2023-10-26T01:04:33.393Z,0.60
2023-10-26T01:05:33.282Z,0.60
2023-10-26T01:06:33.255Z,0.50
2023-10-26T01:07:33.252Z,0.60
2023-10-26T01:08:33.229Z,0.60
2023-10-26T01:09:33.224Z,0.80
2023-10-26T01:10:33.233Z,0.80
2023-10-26T01:11:33.208Z,0.70
2023-10-26T01:12:33.280Z,0.70
2023-10-26T01:13:33.210Z,0.60
2023-10-26T01:14:33.292Z,0.60
2023-10-26T01:15:33.274Z,1.00
2023-10-26T01:16:33.178Z,0.50
2023-10-26T01:17:33.247Z,0.60
2023-10-26T01:18:33.339Z,0.70
2023-10-26T01:19:33.103Z,0.60
2023-10-26T01:20:33.136Z,0.60
2023-10-26T01:21:33.124Z,0.70
2023-10-26T01:22:33.103Z,0.60
2023-10-26T01:23:33.074Z,0.70
2023-10-26T01:24:33.088Z,0.50
2023-10-26T01:25:33.095Z,0.60
2023-10-26T01:26:33.067Z,0.60
2023-10-26T01:27:33.336Z,0.60
2023-10-26T01:28:33.059Z,0.50
2023-10-26T01:29:33.073Z,0.60
2023-10-26T01:30:33.036Z,0.70
2023-10-26T01:31:32.990Z,0.70
2023-10-26T01:32:33.013Z,0.50
2023-10-26T01:33:33.068Z,0.70
2023-10-26T01:34:33.004Z,0.60
2023-10-26T01:35:33.015Z,0.70
2023-10-26T01:36:32.958Z,0.60
2023-10-26T01:37:32.969Z,0.50
2023-10-26T01:38:32.957Z,0.70
2023-10-26T01:39:33.150Z,0.60
2023-10-26T01:40:32.908Z,0.70
2023-10-26T01:41:33.669Z,0.70
2023-10-26T01:42:32.881Z,0.60
2023-10-26T01:43:32.846Z,0.70
2023-10-26T01:44:32.895Z,0.60
2023-10-26T01:45:33.060Z,0.60
2023-10-26T01:46:32.879Z,0.50
2023-10-26T01:47:32.878Z,0.50
2023-10-26T01:48:32.884Z,0.70
2023-10-26T01:49:32.799Z,0.50
2023-10-26T01:50:32.842Z,0.60
2023-10-26T01:51:32.803Z,0.50
2023-10-26T01:52:32.792Z,0.70
2023-10-26T01:53:32.783Z,0.60
2023-10-26T01:54:32.770Z,0.60
2023-10-26T01:55:32.767Z,0.80
2023-10-26T01:56:32.766Z,0.60
2023-10-26T01:57:32.742Z,0.50
2023-10-26T01:58:32.723Z,0.80
2023-10-26T01:59:32.824Z,0.70
2023-10-26T02:00:32.701Z,0.50
2023-10-26T02:01:32.671Z,0.50
2023-10-26T02:02:32.722Z,0.50
2023-10-26T02:03:32.771Z,0.60
2023-10-26T02:04:32.688Z,0.60
2023-10-26T02:05:32.737Z,0.50
2023-10-26T02:06:32.918Z,0.60
2023-10-26T02:07:32.615Z,0.70
2023-10-26T02:08:32.614Z,0.90
2023-10-26T02:09:32.628Z,0.50
2023-10-26T02:10:32.639Z,0.80
2023-10-26T02:11:32.569Z,0.50
2023-10-26T02:12:32.572Z,0.50
2023-10-26T02:13:32.574Z,0.50
2023-10-26T02:14:32.579Z,0.60
2023-10-26T02:15:32.540Z,0.60
2023-10-26T02:16:33.488Z,0.60
2023-10-26T02:17:33.477Z,0.50
2023-10-26T02:18:32.662Z,0.70
2023-10-26T02:19:32.614Z,0.60
2023-10-26T02:20:32.538Z,0.70
2023-10-26T02:21:32.542Z,0.50
2023-10-26T02:22:32.484Z,0.70
2023-10-26T02:23:32.532Z,0.60
2023-10-26T02:24:32.495Z,0.50
2023-10-26T02:25:32.471Z,0.60
2023-10-26T02:26:32.470Z,0.70
2023-10-26T02:27:32.659Z,0.60
2023-10-26T02:28:32.400Z,0.60
2023-10-26T02:29:32.429Z,0.50
2023-10-26T02:30:32.436Z,0.50
2023-10-26T02:31:32.595Z,0.60
2023-10-26T02:32:32.402Z,0.70
2023-10-26T02:33:32.407Z,0.70
2023-10-26T02:34:32.403Z,0.60
2023-10-26T02:35:32.405Z,0.60
2023-10-26T02:36:33.144Z,0.70
2023-10-26T02:37:32.367Z,0.60
2023-10-26T02:38:32.342Z,0.60
2023-10-26T02:39:32.979Z,0.60
2023-10-26T02:40:32.295Z,0.80
2023-10-26T02:41:32.340Z,0.40
2023-10-26T02:42:32.302Z,0.60
2023-10-26T02:43:32.276Z,0.60
2023-10-26T02:44:32.260Z,0.70
2023-10-26T02:45:32.332Z,0.60
2023-10-26T02:46:32.281Z,0.50
2023-10-26T02:47:32.252Z,0.60
2023-10-26T02:48:32.297Z,0.60
2023-10-26T02:49:32.255Z,0.70
2023-10-26T02:50:33.662Z,0.70
2023-10-26T02:51:32.214Z,0.60
2023-10-26T02:52:32.167Z,0.70
2023-10-26T02:53:32.198Z,0.60
2023-10-26T02:54:32.193Z,0.70
2023-10-26T02:55:32.185Z,0.80
2023-10-26T02:56:32.173Z,0.60
2023-10-26T02:57:32.149Z,0.60
2023-10-26T02:58:32.129Z,0.50
2023-10-26T02:59:32.076Z,1.10
2023-10-26T03:00:32.139Z,0.60
2023-10-26T03:01:32.169Z,0.60
2023-10-26T03:02:32.143Z,0.70
2023-10-26T03:03:32.217Z,0.60
2023-10-26T03:04:32.023Z,1.00
2023-10-26T03:05:32.112Z,0.70
2023-10-26T03:06:32.027Z,0.60
2023-10-26T03:07:32.021Z,0.70
2023-10-26T03:08:32.021Z,0.70
2023-10-26T03:09:32.107Z,0.60
2023-10-26T03:10:31.962Z,0.70
2023-10-26T03:11:33.510Z,0.80
2023-10-26T03:12:31.987Z,0.60
2023-10-26T03:13:31.983Z,0.60
2023-10-26T03:14:31.986Z,0.50
2023-10-26T03:15:31.978Z,0.80
2023-10-26T03:16:31.949Z,0.70
2023-10-26T03:17:31.947Z,0.70
2023-10-26T03:18:31.951Z,0.80
2023-10-26T03:19:31.904Z,0.70
2023-10-26T03:20:31.874Z,0.70
2023-10-26T03:21:31.955Z,0.80
2023-10-26T03:22:31.884Z,0.60
2023-10-26T03:23:31.892Z,0.50
2023-10-26T03:24:31.894Z,0.70
2023-10-26T03:25:31.836Z,0.70
2023-10-26T03:26:31.819Z,0.70
2023-10-26T03:27:33.011Z,0.60
2023-10-26T03:28:31.872Z,0.70
2023-10-26T03:29:31.815Z,0.50
2023-10-26T03:30:31.841Z,0.80
2023-10-26T03:31:31.799Z,0.70
2023-10-26T03:32:31.776Z,0.70
2023-10-26T03:33:31.793Z,0.70
2023-10-26T03:34:31.729Z,0.70
2023-10-26T03:35:32.618Z,0.60
2023-10-26T03:36:31.802Z,0.60
2023-10-26T03:37:31.745Z,0.80
2023-10-26T03:38:31.709Z,0.70
2023-10-26T03:39:31.726Z,0.70
2023-10-26T03:40:31.721Z,0.60
2023-10-26T03:41:31.665Z,0.70
2023-10-26T03:42:31.692Z,0.50
2023-10-26T03:43:31.668Z,0.70
2023-10-26T03:44:31.638Z,0.60
2023-10-26T03:45:31.710Z,0.60
2023-10-26T03:46:32.541Z,0.60
2023-10-26T03:47:32.676Z,0.70
2023-10-26T03:48:31.655Z,0.50
2023-10-26T03:49:31.612Z,0.60
2023-10-26T03:50:31.629Z,1.00
2023-10-26T03:51:31.878Z,0.80
2023-10-26T03:52:31.754Z,0.70
2023-10-26T03:53:31.698Z,0.70
2023-10-26T03:54:31.740Z,0.80
2023-10-26T03:55:31.524Z,0.70
2023-10-26T03:56:31.548Z,0.60
2023-10-26T03:57:31.622Z,0.60
2023-10-26T03:58:31.496Z,0.80
2023-10-26T03:59:31.755Z,1.00
2023-10-26T04:00:33.238Z,0.80
2023-10-26T04:01:31.539Z,0.70
2023-10-26T04:02:31.496Z,0.60
2023-10-26T04:03:31.494Z,0.80
2023-10-26T04:04:31.450Z,0.70
2023-10-26T04:05:31.398Z,0.60
2023-10-26T04:06:31.468Z,0.60
2023-10-26T04:07:31.385Z,0.70
2023-10-26T04:08:31.406Z,1.10
2023-10-26T04:09:31.408Z,0.90
2023-10-26T04:10:31.471Z,0.70
2023-10-26T04:11:31.360Z,0.50
2023-10-26T04:12:31.453Z,0.70
2023-10-26T04:13:31.354Z,0.80
2023-10-26T04:14:31.305Z,0.70
2023-10-26T04:15:31.320Z,0.70
2023-10-26T04:16:31.326Z,0.70
2023-10-26T04:17:31.532Z,0.70
2023-10-26T04:18:31.380Z,0.80
2023-10-26T04:19:31.258Z,0.60
2023-10-26T04:20:31.297Z,0.60
2023-10-26T04:21:31.331Z,0.60
2023-10-26T04:22:31.262Z,0.80
2023-10-26T04:23:31.230Z,0.80
2023-10-26T04:24:31.252Z,0.80
2023-10-26T04:25:46.542Z,0.80
2023-10-26T04:26:31.215Z,0.60
2023-10-26T04:27:31.222Z,0.80
2023-10-26T04:28:33.290Z,0.90
2023-10-26T04:29:31.174Z,0.80
2023-10-26T04:30:31.182Z,0.60
2023-10-26T04:31:31.209Z,0.60
2023-10-26T04:32:31.179Z,0.80
2023-10-26T04:33:33.166Z,0.90
2023-10-26T04:34:32.461Z,0.60
2023-10-26T04:35:31.123Z,0.80
2023-10-26T04:36:31.105Z,0.80
2023-10-26T04:37:31.083Z,0.70
2023-10-26T04:38:31.096Z,0.70
2023-10-26T04:39:31.136Z,0.60
2023-10-26T04:40:31.069Z,0.70
2023-10-26T04:41:31.079Z,0.70
2023-10-26T04:42:31.059Z,1.00
2023-10-26T04:43:32.031Z,1.60
2023-10-26T04:44:31.033Z,0.70
2023-10-26T04:45:31.115Z,0.60
2023-10-26T04:46:31.007Z,0.90
2023-10-26T04:47:31.056Z,1.00
2023-10-26T04:48:31.139Z,0.60
2023-10-26T04:49:31.002Z,0.60
2023-10-26T04:50:30.980Z,0.90
2023-10-26T04:51:31.101Z,0.80
2023-10-26T04:52:30.990Z,0.80
2023-10-26T04:53:30.941Z,0.70
2023-10-26T04:54:30.949Z,1.30
2023-10-26T04:55:30.927Z,0.60
2023-10-26T04:56:30.962Z,0.90
2023-10-26T04:57:30.964Z,0.70
2023-10-26T04:58:31.567Z,0.80
2023-10-26T04:59:31.107Z,0.70
2023-10-26T05:00:30.878Z,0.70
2023-10-26T05:01:30.910Z,0.70
2023-10-26T05:02:30.847Z,1.00
2023-10-26T05:03:30.862Z,1.00
2023-10-26T05:04:31.542Z,0.70
2023-10-26T05:05:30.835Z,1.10
2023-10-26T05:06:30.863Z,0.90
2023-10-26T05:07:30.781Z,0.60
2023-10-26T05:08:30.779Z,0.90
2023-10-26T05:09:30.849Z,0.90
2023-10-26T05:10:31.099Z,1.00
2023-10-26T05:11:30.732Z,0.80
2023-10-26T05:12:30.739Z,0.80
2023-10-26T05:13:30.717Z,0.70
2023-10-26T05:14:30.723Z,0.80
2023-10-26T05:15:30.731Z,0.70
2023-10-26T05:16:30.738Z,1.00
2023-10-26T05:17:30.723Z,0.90
2023-10-26T05:18:30.676Z,0.60
2023-10-26T05:19:30.681Z,0.80
2023-10-26T05:20:30.671Z,0.70
2023-10-26T05:21:30.933Z,1.00
2023-10-26T05:22:30.613Z,1.00
2023-10-26T05:23:30.618Z,1.00
2023-10-26T05:24:30.708Z,0.90
2023-10-26T05:25:30.587Z,0.80
2023-10-26T05:26:30.572Z,0.70
2023-10-26T05:27:30.689Z,0.80
2023-10-26T05:28:30.587Z,0.90
2023-10-26T05:29:33.226Z,0.90
2023-10-26T05:30:31.077Z,0.80
2023-10-26T05:31:30.548Z,0.70
2023-10-26T05:32:30.801Z,0.70
2023-10-26T05:33:32.043Z,0.70
2023-10-26T05:34:30.476Z,1.10
2023-10-26T05:35:30.528Z,0.80
2023-10-26T05:36:30.686Z,0.90
2023-10-26T05:37:30.531Z,1.30
2023-10-26T05:38:30.694Z,1.40
2023-10-26T05:39:30.496Z,1.20
2023-10-26T05:40:30.418Z,1.20
2023-10-26T05:41:30.433Z,1.10
2023-10-26T05:42:30.565Z,0.70
2023-10-26T05:43:30.428Z,0.70
2023-10-26T05:44:30.498Z,1.00
2023-10-26T05:45:30.751Z,0.70
2023-10-26T05:46:30.353Z,1.30
2023-10-26T05:47:30.442Z,0.90
2023-10-26T05:48:30.405Z,1.00
2023-10-26T05:49:30.328Z,1.10
2023-10-26T05:50:32.122Z,0.60
2023-10-26T05:51:30.361Z,0.90
2023-10-26T05:52:30.378Z,0.90
2023-10-26T05:53:30.280Z,0.90
2023-10-26T05:54:30.354Z,1.30
2023-10-26T05:55:30.568Z,0.80
2023-10-26T05:56:30.285Z,0.80
2023-10-26T05:57:30.517Z,0.90
2023-10-26T05:58:30.282Z,0.80
2023-10-26T05:59:30.275Z,1.30
2023-10-26T06:00:30.253Z,0.80
2023-10-26T06:01:30.265Z,1.30
2023-10-26T06:02:30.247Z,1.00
2023-10-26T06:03:30.216Z,0.90
2023-10-26T06:04:30.149Z,0.90
2023-10-26T06:05:30.238Z,1.00
2023-10-26T06:06:30.204Z,0.80
2023-10-26T06:07:30.161Z,0.90
2023-10-26T06:08:30.176Z,1.00
2023-10-26T06:09:30.179Z,1.60
2023-10-26T06:10:30.092Z,1.50
2023-10-26T06:11:30.148Z,1.30
2023-10-26T06:12:30.120Z,0.90
2023-10-26T06:13:30.092Z,1.30
2023-10-26T06:14:30.107Z,0.90
2023-10-26T06:15:30.153Z,0.90
2023-10-26T06:16:30.124Z,1.10
2023-10-26T06:17:30.091Z,1.20
2023-10-26T06:18:30.066Z,1.20
2023-10-26T06:19:30.043Z,1.00
2023-10-26T06:20:30.247Z,0.80
2023-10-26T06:21:30.015Z,0.60
2023-10-26T06:22:31.032Z,0.80
2023-10-26T06:23:30.058Z,0.90
2023-10-26T06:24:30.001Z,0.90
2023-10-26T06:25:29.984Z,0.80
2023-10-26T06:26:29.929Z,1.00
2023-10-26T06:27:29.998Z,1.00
2023-10-26T06:28:29.990Z,0.90
2023-10-26T06:29:29.912Z,0.80
2023-10-26T06:30:29.931Z,1.60
2023-10-26T06:31:29.928Z,0.70
2023-10-26T06:32:29.953Z,0.90
2023-10-26T06:33:30.022Z,0.90
2023-10-26T06:34:29.872Z,0.90
2023-10-26T06:35:29.849Z,0.90
2023-10-26T06:36:29.900Z,1.10
2023-10-26T06:37:29.819Z,1.20
2023-10-26T06:38:29.897Z,1.00
2023-10-26T06:39:29.938Z,0.90
2023-10-26T06:40:29.888Z,0.80
2023-10-26T06:41:29.856Z,1.00
2023-10-26T06:42:29.782Z,0.90
2023-10-26T06:43:29.805Z,1.10
2023-10-26T06:44:29.784Z,1.00
2023-10-26T06:45:29.813Z,0.90
2023-10-26T06:46:29.814Z,1.10
2023-10-26T06:47:29.756Z,0.90
2023-10-26T06:48:29.741Z,1.20
2023-10-26T06:49:31.121Z,1.40
2023-10-26T06:50:29.690Z,1.00
2023-10-26T06:51:29.762Z,1.10
2023-10-26T06:52:29.707Z,1.20
2023-10-26T06:53:29.662Z,0.90
2023-10-26T06:54:29.733Z,1.00
2023-10-26T06:55:31.057Z,1.00
2023-10-26T06:56:30.518Z,0.90
2023-10-26T06:57:29.761Z,0.80
2023-10-26T06:58:29.657Z,1.10
2023-10-26T06:59:29.593Z,0.80
2023-10-26T07:00:29.722Z,1.20
2023-10-26T07:01:29.709Z,1.20
2023-10-26T07:02:29.668Z,1.70
2023-10-26T07:03:29.644Z,1.20
2023-10-26T07:04:29.629Z,0.90
2023-10-26T07:05:29.537Z,0.90
2023-10-26T07:06:29.604Z,0.90
2023-10-26T07:07:29.534Z,0.90
2023-10-26T07:08:29.502Z,1.00
2023-10-26T07:09:29.562Z,0.80
2023-10-26T07:10:29.496Z,0.80
2023-10-26T07:11:29.484Z,1.20
2023-10-26T07:12:29.786Z,0.80
2023-10-26T07:13:31.183Z,1.00
2023-10-26T07:14:29.462Z,1.00
2023-10-26T07:15:29.547Z,0.90
2023-10-26T07:16:29.467Z,1.10
2023-10-26T07:17:29.451Z,1.20
2023-10-26T07:18:29.488Z,1.00
2023-10-26T07:19:29.421Z,1.10
2023-10-26T07:20:29.396Z,0.80
2023-10-26T07:21:29.438Z,0.80
2023-10-26T07:22:29.352Z,1.10
2023-10-26T07:23:29.392Z,0.90
2023-10-26T07:24:29.407Z,0.80
2023-10-26T07:25:29.412Z,1.20
2023-10-26T07:26:29.347Z,1.20
2023-10-26T07:27:29.384Z,1.80
2023-10-26T07:28:29.311Z,1.10
2023-10-26T07:29:29.279Z,1.20
2023-10-26T07:30:29.326Z,0.90
2023-10-26T07:31:29.303Z,0.90
2023-10-26T07:32:29.268Z,1.00
2023-10-26T07:33:29.366Z,1.00
2023-10-26T07:34:29.250Z,1.20
2023-10-26T07:35:29.378Z,1.00
2023-10-26T07:36:29.268Z,1.30
2023-10-26T07:37:29.541Z,1.20
2023-10-26T07:38:36.981Z,0.80
2023-10-26T07:39:46.118Z,1.20
2023-10-26T07:40:30.496Z,1.00
2023-10-26T07:42:06.465Z,1.10
2023-10-26T07:42:29.174Z,1.20
2023-10-26T07:43:29.414Z,1.20
2023-10-26T07:44:29.128Z,0.80
2023-10-26T07:45:29.209Z,1.50
2023-10-26T07:46:29.170Z,1.10
2023-10-26T07:47:29.113Z,1.00
2023-10-26T07:48:29.174Z,0.90
2023-10-26T07:49:29.097Z,1.20
2023-10-26T07:50:29.145Z,1.00
2023-10-26T07:51:29.357Z,0.80
2023-10-26T07:52:29.083Z,1.10
2023-10-26T07:53:29.053Z,1.20
2023-10-26T07:54:29.063Z,1.00
2023-10-26T07:55:29.096Z,1.20
2023-10-26T07:56:29.022Z,1.00
2023-10-26T07:57:29.076Z,1.00
2023-10-26T07:58:29.212Z,1.40
2023-10-26T07:59:29.009Z,1.00
2023-10-26T08:00:29.009Z,1.10
2023-10-26T08:01:29.130Z,0.90
2023-10-26T08:02:30.933Z,1.20
2023-10-26T08:03:29.155Z,0.80
2023-10-26T08:04:29.024Z,1.20
2023-10-26T08:05:29.007Z,1.00
2023-10-26T08:06:30.013Z,1.10
2023-10-26T08:07:28.957Z,1.30
2023-10-26T08:08:28.975Z,1.00
2023-10-26T08:09:28.915Z,0.80
2023-10-26T08:10:28.957Z,1.10
2023-10-26T08:11:28.894Z,1.00
2023-10-26T08:12:29.380Z,1.20
2023-10-26T08:13:29.017Z,0.80
2023-10-26T08:16:29.494Z,1.10
2023-10-26T08:16:50.130Z,0.90
2023-10-26T08:16:55.954Z,1.10
2023-10-26T08:17:56.361Z,0.90
2023-10-26T08:18:56.020Z,0.70
2023-10-26T08:19:56.164Z,0.90
2023-10-26T08:20:55.865Z,0.60
2023-10-26T08:21:55.841Z,1.00
2023-10-26T08:22:55.860Z,0.90
2023-10-26T08:23:55.835Z,0.90
2023-10-26T08:24:55.832Z,0.90
2023-10-26T08:25:55.839Z,0.90
2023-10-26T08:26:55.825Z,1.00
2023-10-26T08:27:55.817Z,1.10
2023-10-26T08:29:11.798Z,0.80
2023-10-26T08:29:55.781Z,0.80
2023-10-26T08:30:55.740Z,1.10
2023-10-26T08:31:55.820Z,1.60
2023-10-26T08:32:55.851Z,0.90
2023-10-26T08:33:55.714Z,0.90
2023-10-26T08:34:55.745Z,0.80
2023-10-26T08:35:55.736Z,0.90
2023-10-26T08:37:12.260Z,0.80
2023-10-26T08:37:55.717Z,0.70
2023-10-26T08:38:55.673Z,1.00
2023-10-26T08:39:55.662Z,1.20
2023-10-26T08:40:55.680Z,0.70
2023-10-26T08:41:55.662Z,1.20
2023-10-26T08:42:55.631Z,0.70
2023-10-26T08:43:55.637Z,0.80
2023-10-26T08:44:55.635Z,0.80
2023-10-26T08:45:55.655Z,0.90
2023-10-26T08:46:55.609Z,0.90
2023-10-26T08:47:55.577Z,0.90
2023-10-26T08:48:55.542Z,0.70
2023-10-26T08:50:08.077Z,1.10
2023-10-26T08:50:55.579Z,1.00
2023-10-26T08:51:55.524Z,0.80
2023-10-26T08:52:55.593Z,0.80
2023-10-26T08:53:55.909Z,1.00
2023-10-26T08:54:55.502Z,0.90
2023-10-26T08:55:55.687Z,0.70
2023-10-26T08:56:55.510Z,1.00
2023-10-26T08:57:56.023Z,1.20
2023-10-26T08:58:55.479Z,0.70
2023-10-26T08:59:55.465Z,0.90
2023-10-26T09:00:55.481Z,0.80
2023-10-26T09:01:55.534Z,1.00
2023-10-26T09:02:55.699Z,0.90
2023-10-26T09:03:55.505Z,0.90
2023-10-26T09:04:55.471Z,1.00
2023-10-26T09:05:55.432Z,1.00
2023-10-26T09:06:55.624Z,0.90
2023-10-26T09:07:55.455Z,1.10
2023-10-26T09:08:55.402Z,0.80
2023-10-26T09:09:55.343Z,0.60
2023-10-26T09:10:55.520Z,1.10
2023-10-26T09:11:55.381Z,0.90
2023-10-26T09:12:55.312Z,0.80
2023-10-26T09:13:55.422Z,0.70
2023-10-26T09:14:57.341Z,0.90
2023-10-26T09:15:56.496Z,1.00
2023-10-26T09:16:55.361Z,0.80
2023-10-26T09:17:55.332Z,0.90
2023-10-26T09:18:55.303Z,0.60
2023-10-26T09:19:55.333Z,0.80
2023-10-26T09:20:55.283Z,0.90
2023-10-26T09:21:55.257Z,0.90
2023-10-26T09:22:55.243Z,1.40
2023-10-26T09:23:56.097Z,1.00
2023-10-26T09:24:55.248Z,0.80
2023-10-26T09:25:55.240Z,1.10
2023-10-26T09:26:55.431Z,1.00
2023-10-26T09:27:55.161Z,1.10
2023-10-26T09:28:55.637Z,0.90
2023-10-26T09:29:55.223Z,1.20
2023-10-26T09:30:55.176Z,0.80
2023-10-26T09:31:55.269Z,0.90
2023-10-26T09:32:55.159Z,0.80
2023-10-26T09:33:55.147Z,1.10
2023-10-26T09:34:55.180Z,0.90
2023-10-26T09:35:55.109Z,0.80
2023-10-26T09:36:55.107Z,1.00
2023-10-26T09:37:55.169Z,0.90
2023-10-26T09:38:55.610Z,1.30
2023-10-26T09:40:12.073Z,1.10
2023-10-26T09:40:55.056Z,0.70
2023-10-26T09:41:55.087Z,0.70
2023-10-26T09:42:55.080Z,0.80
2023-10-26T09:43:55.053Z,0.90
2023-10-26T09:44:55.040Z,1.00
2023-10-26T09:45:54.994Z,1.00
2023-10-26T09:46:55.034Z,1.00
2023-10-26T09:47:55.432Z,0.60
2023-10-26T09:48:55.016Z,0.70
2023-10-26T09:49:55.026Z,1.00
2023-10-26T09:50:54.950Z,0.90
2023-10-26T09:51:55.195Z,0.60
2023-10-26T09:52:54.958Z,0.60
2023-10-26T09:53:55.008Z,0.60
2023-10-26T09:54:55.034Z,0.70
2023-10-26T09:55:54.859Z,0.90
2023-10-26T09:56:54.849Z,0.80
2023-10-26T09:57:55.086Z,0.60
2023-10-26T09:58:54.861Z,0.80
2023-10-26T09:59:56.414Z,0.70
2023-10-26T10:00:54.917Z,0.90
2023-10-26T10:01:54.892Z,0.90
2023-10-26T10:02:54.906Z,0.80
2023-10-26T10:03:54.817Z,1.10
2023-10-26T10:04:54.798Z,0.90
2023-10-26T10:05:54.831Z,1.40
2023-10-26T10:06:54.963Z,0.70
2023-10-26T10:07:54.809Z,1.00
2023-10-26T10:08:55.167Z,0.70
2023-10-26T10:09:54.769Z,0.70
2023-10-26T10:10:54.811Z,0.70
2023-10-26T10:11:54.724Z,0.60
2023-10-26T10:12:54.889Z,0.70
2023-10-26T10:13:54.705Z,0.80
2023-10-26T10:14:58.315Z,0.70
2023-10-26T10:15:54.768Z,0.80
2023-10-26T10:16:54.848Z,0.70
2023-10-26T10:17:54.808Z,0.60
2023-10-26T10:18:54.683Z,0.70
2023-10-26T10:19:54.738Z,0.80
2023-10-26T10:20:54.624Z,0.60
2023-10-26T10:21:55.603Z,0.80
2023-10-26T10:22:54.651Z,0.80
2023-10-26T10:23:54.594Z,0.80
2023-10-26T10:24:54.749Z,1.00
2023-10-26T10:25:54.577Z,0.90
2023-10-26T10:26:54.547Z,1.40
2023-10-26T10:27:54.581Z,1.40
2023-10-26T10:28:54.632Z,1.00
2023-10-26T10:29:54.591Z,0.90
2023-10-26T10:30:54.553Z,1.10
2023-10-26T10:31:54.591Z,0.80
2023-10-26T10:32:54.753Z,1.30
2023-10-26T10:33:54.520Z,0.90
2023-10-26T10:34:54.477Z,0.90
2023-10-26T10:35:54.493Z,1.00
2023-10-26T10:36:54.519Z,0.70
2023-10-26T10:37:54.442Z,1.00
2023-10-26T10:38:54.436Z,0.60
2023-10-26T10:39:56.136Z,0.80
2023-10-26T10:40:54.481Z,0.80
2023-10-26T10:41:54.408Z,0.90
2023-10-26T10:42:55.344Z,0.70
2023-10-26T10:43:54.500Z,1.10
2023-10-26T10:44:54.445Z,0.80
2023-10-26T10:45:54.423Z,0.70
2023-10-26T10:46:54.374Z,0.80
2023-10-26T10:47:54.445Z,0.80
2023-10-26T10:48:54.411Z,0.80
2023-10-26T10:49:54.328Z,0.60
2023-10-26T10:50:54.690Z,0.80
2023-10-26T10:51:54.322Z,0.60
2023-10-26T10:52:55.127Z,0.80
2023-10-26T10:53:54.536Z,0.80
2023-10-26T10:55:03.109Z,0.90
2023-10-26T10:55:54.255Z,1.00
2023-10-26T10:56:54.215Z,1.00
2023-10-26T10:57:54.413Z,1.20
2023-10-26T10:58:54.394Z,0.90
2023-10-26T10:59:54.302Z,0.80
2023-10-26T11:00:54.210Z,1.00
2023-10-26T11:01:54.305Z,0.80
2023-10-26T11:02:54.294Z,0.70
2023-10-26T11:03:54.200Z,0.70
2023-10-26T11:05:02.412Z,0.70
2023-10-26T11:05:54.140Z,0.70
2023-10-26T11:06:55.192Z,0.90
2023-10-26T11:07:55.061Z,0.80
2023-10-26T11:08:54.127Z,0.80
2023-10-26T11:09:54.170Z,1.10
2023-10-26T11:10:54.130Z,0.80
2023-10-26T11:11:54.091Z,0.90
2023-10-26T11:12:54.146Z,1.00
2023-10-26T11:13:54.066Z,0.80
2023-10-26T11:14:54.052Z,1.00
2023-10-26T11:15:54.167Z,0.90
2023-10-26T11:16:54.150Z,1.10
2023-10-26T11:17:54.075Z,1.20
2023-10-26T11:18:54.055Z,1.30
2023-10-26T11:19:53.989Z,1.10
2023-10-26T11:20:54.068Z,1.20
2023-10-26T11:21:54.038Z,1.40
2023-10-26T11:22:54.016Z,1.80
2023-10-26T11:23:54.006Z,1.20
2023-10-26T11:24:54.044Z,1.00
2023-10-26T11:25:54.121Z,1.20
2023-10-26T11:26:53.953Z,1.30
2023-10-26T11:27:53.980Z,1.30
2023-10-26T11:28:53.921Z,1.00
2023-10-26T11:29:53.900Z,0.80
2023-10-26T11:30:54.097Z,1.00
2023-10-26T11:31:53.974Z,1.30
2023-10-26T11:32:53.967Z,1.20
2023-10-26T11:33:53.927Z,1.20
2023-10-26T11:34:53.899Z,1.60
2023-10-26T11:35:53.859Z,0.90
2023-10-26T11:36:53.892Z,1.50
2023-10-26T11:37:53.842Z,1.20
2023-10-26T11:38:53.897Z,1.60
2023-10-26T11:39:53.916Z,1.50
2023-10-26T11:40:53.858Z,1.50
2023-10-26T11:41:53.834Z,1.90
2023-10-26T11:42:53.785Z,1.90
2023-10-26T11:43:54.643Z,1.90
2023-10-26T11:44:53.765Z,1.60
2023-10-26T11:45:53.869Z,1.50
2023-10-26T11:46:53.811Z,1.70
2023-10-26T11:47:53.794Z,1.50
2023-10-26T11:48:55.673Z,1.40
2023-10-26T11:49:53.739Z,1.20
2023-10-26T11:50:53.938Z,1.30
2023-10-26T11:51:59.218Z,1.80
2023-10-26T11:52:53.688Z,1.20
2023-10-26T11:53:53.775Z,1.70
2023-10-26T11:54:53.729Z,1.50
2023-10-26T11:55:53.628Z,1.80
2023-10-26T11:56:53.648Z,1.30
2023-10-26T11:57:53.691Z,1.10
2023-10-26T11:58:53.633Z,1.50
2023-10-26T11:59:53.966Z,1.30
2023-10-26T12:00:53.629Z,1.20
2023-10-26T12:01:53.648Z,1.20
2023-10-26T12:02:53.862Z,1.70
2023-10-26T12:03:54.295Z,1.50
2023-10-26T12:04:53.842Z,1.50
2023-10-26T12:05:55.902Z,1.90
2023-10-26T12:06:53.643Z,1.30
2023-10-26T12:07:53.531Z,1.50
2023-10-26T12:08:55.162Z,1.00
2023-10-26T12:09:53.524Z,1.60
2023-10-26T12:10:53.551Z,1.40
2023-10-26T12:11:53.494Z,1.30
2023-10-26T12:12:53.535Z,1.90
2023-10-26T12:13:53.685Z,1.40
2023-10-26T12:14:53.469Z,1.30
2023-10-26T12:15:54.114Z,1.60
2023-10-26T12:16:53.444Z,1.50
2023-10-26T12:17:53.456Z,3.20
2023-10-26T12:18:53.516Z,1.50
2023-10-26T12:19:53.401Z,1.50
2023-10-26T12:20:53.394Z,1.10
2023-10-26T12:21:53.618Z,1.70
2023-10-26T12:22:53.462Z,1.60
2023-10-26T12:23:53.346Z,1.50
2023-10-26T12:24:53.676Z,1.30
2023-10-26T12:25:53.331Z,1.40
2023-10-26T12:26:53.346Z,1.40
2023-10-26T12:28:21.333Z,1.10
2023-10-26T12:28:53.338Z,1.30
2023-10-26T12:29:53.311Z,1.20
2023-10-26T12:30:53.319Z,1.00
2023-10-26T12:31:55.148Z,1.40
2023-10-26T12:32:53.398Z,1.70
2023-10-26T12:33:53.250Z,1.10
2023-10-26T12:34:53.516Z,1.80
2023-10-26T12:35:53.230Z,1.40
2023-10-26T12:36:53.257Z,1.70
2023-10-26T12:37:53.189Z,1.40
2023-10-26T12:38:53.194Z,1.60
2023-10-26T12:39:53.212Z,1.10
2023-10-26T12:40:53.203Z,0.90
2023-10-26T12:41:53.236Z,1.10
2023-10-26T12:42:53.193Z,1.30
2023-10-26T12:43:53.189Z,1.20
2023-10-26T12:44:53.114Z,1.60
2023-10-26T12:45:53.640Z,1.70
2023-10-26T12:46:53.268Z,1.50
2023-10-26T12:47:53.164Z,1.00
2023-10-26T12:48:53.084Z,1.30
2023-10-26T12:49:53.133Z,1.00
2023-10-26T12:50:53.114Z,1.20
2023-10-26T12:51:53.322Z,1.20
2023-10-26T12:52:53.033Z,1.50
2023-10-26T12:53:53.264Z,1.30
2023-10-26T12:54:53.134Z,1.00
2023-10-26T12:55:53.022Z,1.60
2023-10-26T12:56:53.020Z,1.50
2023-10-26T12:57:53.053Z,1.20
2023-10-26T12:58:52.967Z,1.50
2023-10-26T12:59:53.018Z,1.90
2023-10-26T13:00:53.015Z,1.20
2023-10-26T13:01:53.147Z,1.40
2023-10-26T13:02:53.007Z,1.10
2023-10-26T13:03:52.977Z,1.20
2023-10-26T13:04:52.939Z,1.10
2023-10-26T13:05:52.919Z,1.50
2023-10-26T13:06:52.990Z,1.10
2023-10-26T13:07:52.884Z,1.10
2023-10-26T13:08:52.903Z,1.00
2023-10-26T13:09:53.011Z,1.60
2023-10-26T13:10:52.894Z,1.30
2023-10-26T13:11:52.853Z,1.20
2023-10-26T13:12:52.896Z,1.10
2023-10-26T13:13:52.823Z,1.00
2023-10-26T13:15:00.215Z,1.60
2023-10-26T13:15:52.857Z,1.40
2023-10-26T13:16:57.306Z,1.40
2023-10-26T13:17:52.840Z,1.30
2023-10-26T13:18:52.835Z,1.00